sensor_id;sensor_type;location;lat;lon;timestamp;temperature;humidity
8093;DHT22;4089;52.420;13.334;2023-12-04T00:00:14;-4.50;99.90
8093;DHT22;4089;52.420;13.334;2023-12-04T00:02:42;-4.50;99.90
8093;DHT22;4089;52.420;13.334;2023-12-04T00:05:08;-4.60;99.90
8093;DHT22;4089;52.420;13.334;2023-12-04T00:07:35;-4.50;99.90
8093;DHT22;4089;52.420;13.334;2023-12-04T00:10:02;-4.70;99.90
8093;DHT22;4089;52.420;13.334;2023-12-04T00:12:29;-4.60;99.90
8093;DHT22;4089;52.420;13.334;2023-12-04T00:14:56;-4.60;99.90
8093;DHT22;4089;52.420;13.334;2023-12-04T00:17:23;-4.60;99.90
8093;DHT22;4089;52.420;13.334;2023-12-04T00:19:50;-4.60;99.90
8093;DHT22;4089;52.420;13.334;2023-12-04T00:22:17;-4.60;99.90
8093;DHT22;4089;52.420;13.334;2023-12-04T00:24:44;-4.60;99.90
8093;DHT22;4089;52.420;13.334;2023-12-04T00:27:11;-4.60;99.90
8093;DHT22;4089;52.420;13.334;2023-12-04T00:29:38;-4.60;99.90
8093;DHT22;4089;52.420;13.334;2023-12-04T00:32:05;-4.60;99.90
8093;DHT22;4089;52.420;13.334;2023-12-04T00:34:32;-4.70;99.90
8093;DHT22;4089;52.420;13.334;2023-12-04T00:36:59;-4.60;99.90
8093;DHT22;4089;52.420;13.334;2023-12-04T00:39:26;-4.60;99.90
8093;DHT22;4089;52.420;13.334;2023-12-04T00:41:53;-4.60;99.90
8093;DHT22;4089;52.420;13.334;2023-12-04T00:44:20;-4.60;99.90
8093;DHT22;4089;52.420;13.334;2023-12-04T00:46:46;-4.60;99.90
8093;DHT22;4089;52.420;13.334;2023-12-04T00:49:13;-4.60;99.90
8093;DHT22;4089;52.420;13.334;2023-12-04T00:51:40;-4.60;99.90
8093;DHT22;4089;52.420;13.334;2023-12-04T00:54:07;-4.70;99.90
8093;DHT22;4089;52.420;13.334;2023-12-04T00:56:34;-4.60;99.90
8093;DHT22;4089;52.420;13.334;2023-12-04T00:59:01;-4.60;99.90
8093;DHT22;4089;52.420;13.334;2023-12-04T01:01:28;-4.70;99.90
8093;DHT22;4089;52.420;13.334;2023-12-04T01:03:54;-4.60;99.90
8093;DHT22;4089;52.420;13.334;2023-12-04T01:06:22;-4.60;99.90
8093;DHT22;4089;52.420;13.334;2023-12-04T01:08:49;-4.60;99.90
8093;DHT22;4089;52.420;13.334;2023-12-04T01:11:17;-4.60;99.90
8093;DHT22;4089;52.420;13.334;2023-12-04T01:13:46;-4.70;99.90
8093;DHT22;4089;52.420;13.334;2023-12-04T01:16:13;-4.60;99.90
8093;DHT22;4089;52.420;13.334;2023-12-04T01:18:41;-4.60;99.90
8093;DHT22;4089;52.420;13.334;2023-12-04T01:21:08;-4.70;99.90
8093;DHT22;4089;52.420;13.334;2023-12-04T01:23:36;-4.60;99.90
8093;DHT22;4089;52.420;13.334;2023-12-04T01:26:03;-4.60;99.90
8093;DHT22;4089;52.420;13.334;2023-12-04T01:28:30;-4.60;99.90
8093;DHT22;4089;52.420;13.334;2023-12-04T01:30:57;-4.60;99.90
8093;DHT22;4089;52.420;13.334;2023-12-04T01:33:24;-4.60;99.90
8093;DHT22;4089;52.420;13.334;2023-12-04T01:35:51;-4.60;99.90
8093;DHT22;4089;52.420;13.334;2023-12-04T01:38:19;-4.50;99.90
8093;DHT22;4089;52.420;13.334;2023-12-04T01:40:46;-4.50;99.90
8093;DHT22;4089;52.420;13.334;2023-12-04T01:43:12;-4.50;99.90
8093;DHT22;4089;52.420;13.334;2023-12-04T01:45:39;-4.50;99.90
8093;DHT22;4089;52.420;13.334;2023-12-04T01:48:07;-4.50;99.90
8093;DHT22;4089;52.420;13.334;2023-12-04T01:50:35;-4.50;99.90
8093;DHT22;4089;52.420;13.334;2023-12-04T01:53:03;-4.40;99.90
8093;DHT22;4089;52.420;13.334;2023-12-04T01:55:30;-4.40;99.90
8093;DHT22;4089;52.420;13.334;2023-12-04T01:58:00;-4.30;99.90
8093;DHT22;4089;52.420;13.334;2023-12-04T02:00:27;-4.30;99.90
8093;DHT22;4089;52.420;13.334;2023-12-04T02:02:54;-4.20;99.90
8093;DHT22;4089;52.420;13.334;2023-12-04T02:05:21;-4.20;99.90
8093;DHT22;4089;52.420;13.334;2023-12-04T02:07:49;-4.20;99.90
8093;DHT22;4089;52.420;13.334;2023-12-04T02:10:16;-4.10;99.90
8093;DHT22;4089;52.420;13.334;2023-12-04T02:12:43;-4.10;99.90
8093;DHT22;4089;52.420;13.334;2023-12-04T02:15:10;-4.10;99.90
8093;DHT22;4089;52.420;13.334;2023-12-04T02:17:37;-4.00;99.90
8093;DHT22;4089;52.420;13.334;2023-12-04T02:20:06;-4.00;99.90
8093;DHT22;4089;52.420;13.334;2023-12-04T02:22:34;-4.00;99.90
8093;DHT22;4089;52.420;13.334;2023-12-04T02:25:01;-4.00;99.90
8093;DHT22;4089;52.420;13.334;2023-12-04T02:27:38;-3.90;99.90
8093;DHT22;4089;52.420;13.334;2023-12-04T02:30:09;-4.00;99.90
8093;DHT22;4089;52.420;13.334;2023-12-04T02:32:49;-4.00;99.90
8093;DHT22;4089;52.420;13.334;2023-12-04T02:35:20;-4.00;99.90
8093;DHT22;4089;52.420;13.334;2023-12-04T02:37:49;-4.10;99.90
8093;DHT22;4089;52.420;13.334;2023-12-04T02:40:16;-4.10;99.90
8093;DHT22;4089;52.420;13.334;2023-12-04T02:42:44;-4.10;99.90
8093;DHT22;4089;52.420;13.334;2023-12-04T02:45:11;-4.20;99.90
8093;DHT22;4089;52.420;13.334;2023-12-04T02:47:38;-4.20;99.90
8093;DHT22;4089;52.420;13.334;2023-12-04T02:50:05;-4.20;99.90
8093;DHT22;4089;52.420;13.334;2023-12-04T02:52:32;-4.20;99.90
8093;DHT22;4089;52.420;13.334;2023-12-04T02:54:59;-4.10;99.90
8093;DHT22;4089;52.420;13.334;2023-12-04T02:57:26;-4.20;99.90
8093;DHT22;4089;52.420;13.334;2023-12-04T02:59:53;-4.10;99.90
8093;DHT22;4089;52.420;13.334;2023-12-04T03:02:20;-4.20;99.90
8093;DHT22;4089;52.420;13.334;2023-12-04T03:04:46;-4.20;99.90
8093;DHT22;4089;52.420;13.334;2023-12-04T03:07:13;-4.20;99.90
8093;DHT22;4089;52.420;13.334;2023-12-04T03:09:40;-4.20;99.90
8093;DHT22;4089;52.420;13.334;2023-12-04T03:12:16;-4.20;99.90
8093;DHT22;4089;52.420;13.334;2023-12-04T03:14:43;-4.20;99.90
8093;DHT22;4089;52.420;13.334;2023-12-04T03:17:10;-4.10;99.90
8093;DHT22;4089;52.420;13.334;2023-12-04T03:19:36;-4.10;99.90
8093;DHT22;4089;52.420;13.334;2023-12-04T03:22:03;-4.10;99.90
8093;DHT22;4089;52.420;13.334;2023-12-04T03:24:30;-4.00;99.90
8093;DHT22;4089;52.420;13.334;2023-12-04T03:26:57;-4.00;99.90
8093;DHT22;4089;52.420;13.334;2023-12-04T03:29:24;-4.00;99.90
8093;DHT22;4089;52.420;13.334;2023-12-04T03:31:51;-4.00;99.90
8093;DHT22;4089;52.420;13.334;2023-12-04T03:34:18;-4.00;99.90
8093;DHT22;4089;52.420;13.334;2023-12-04T03:36:44;-3.90;99.90
8093;DHT22;4089;52.420;13.334;2023-12-04T03:39:11;-3.90;99.90
8093;DHT22;4089;52.420;13.334;2023-12-04T03:41:38;-3.90;99.90
8093;DHT22;4089;52.420;13.334;2023-12-04T03:44:05;-3.90;99.90
8093;DHT22;4089;52.420;13.334;2023-12-04T03:46:32;-3.90;99.90
8093;DHT22;4089;52.420;13.334;2023-12-04T03:48:59;-3.90;99.90
8093;DHT22;4089;52.420;13.334;2023-12-04T03:51:26;-3.80;99.90
8093;DHT22;4089;52.420;13.334;2023-12-04T03:53:53;-3.80;99.90
8093;DHT22;4089;52.420;13.334;2023-12-04T03:56:20;-3.80;99.90
8093;DHT22;4089;52.420;13.334;2023-12-04T03:58:47;-3.80;99.90
8093;DHT22;4089;52.420;13.334;2023-12-04T04:01:13;-3.80;99.90
8093;DHT22;4089;52.420;13.334;2023-12-04T04:03:40;-3.80;99.90
8093;DHT22;4089;52.420;13.334;2023-12-04T04:06:11;-3.80;99.90
8093;DHT22;4089;52.420;13.334;2023-12-04T04:08:38;-3.80;99.90
8093;DHT22;4089;52.420;13.334;2023-12-04T04:11:05;-3.80;99.90
8093;DHT22;4089;52.420;13.334;2023-12-04T04:13:32;-3.80;99.90
8093;DHT22;4089;52.420;13.334;2023-12-04T04:15:59;-3.80;99.90
8093;DHT22;4089;52.420;13.334;2023-12-04T04:18:26;-3.80;99.90
8093;DHT22;4089;52.420;13.334;2023-12-04T04:20:53;-3.90;99.90
8093;DHT22;4089;52.420;13.334;2023-12-04T04:23:20;-3.90;99.90
8093;DHT22;4089;52.420;13.334;2023-12-04T04:25:47;-3.90;99.90
8093;DHT22;4089;52.420;13.334;2023-12-04T04:28:14;-3.90;99.90
8093;DHT22;4089;52.420;13.334;2023-12-04T04:30:41;-3.90;99.90
8093;DHT22;4089;52.420;13.334;2023-12-04T04:33:07;-3.90;99.90
8093;DHT22;4089;52.420;13.334;2023-12-04T04:35:34;-3.90;99.90
8093;DHT22;4089;52.420;13.334;2023-12-04T04:38:01;-3.90;99.90
8093;DHT22;4089;52.420;13.334;2023-12-04T04:40:28;-4.00;99.90
8093;DHT22;4089;52.420;13.334;2023-12-04T04:42:55;-4.00;99.90
8093;DHT22;4089;52.420;13.334;2023-12-04T04:45:22;-4.00;99.90
8093;DHT22;4089;52.420;13.334;2023-12-04T04:47:49;-4.00;99.90
8093;DHT22;4089;52.420;13.334;2023-12-04T04:50:16;-4.00;99.90
8093;DHT22;4089;52.420;13.334;2023-12-04T04:52:43;-4.00;99.90
8093;DHT22;4089;52.420;13.334;2023-12-04T04:55:10;-3.90;99.90
8093;DHT22;4089;52.420;13.334;2023-12-04T04:57:56;-3.90;99.90
8093;DHT22;4089;52.420;13.334;2023-12-04T05:00:24;-4.00;99.90
8093;DHT22;4089;52.420;13.334;2023-12-04T05:02:52;-4.00;99.90
8093;DHT22;4089;52.420;13.334;2023-12-04T05:05:19;-3.90;99.90
8093;DHT22;4089;52.420;13.334;2023-12-04T05:07:46;-3.90;99.90
8093;DHT22;4089;52.420;13.334;2023-12-04T05:10:13;-3.90;99.90
8093;DHT22;4089;52.420;13.334;2023-12-04T05:12:40;-3.90;99.90
8093;DHT22;4089;52.420;13.334;2023-12-04T05:15:07;-3.80;99.90
8093;DHT22;4089;52.420;13.334;2023-12-04T05:17:33;-3.80;99.90
8093;DHT22;4089;52.420;13.334;2023-12-04T05:20:00;-3.80;99.90
8093;DHT22;4089;52.420;13.334;2023-12-04T05:22:27;-3.80;99.90
8093;DHT22;4089;52.420;13.334;2023-12-04T05:24:54;-3.70;99.90
8093;DHT22;4089;52.420;13.334;2023-12-04T05:27:21;-3.70;99.90
8093;DHT22;4089;52.420;13.334;2023-12-04T05:29:48;-3.70;99.90
8093;DHT22;4089;52.420;13.334;2023-12-04T05:32:14;-3.70;99.90
8093;DHT22;4089;52.420;13.334;2023-12-04T05:34:41;-3.70;99.90
8093;DHT22;4089;52.420;13.334;2023-12-04T05:37:08;-3.70;99.90
8093;DHT22;4089;52.420;13.334;2023-12-04T05:39:35;-3.70;99.90
8093;DHT22;4089;52.420;13.334;2023-12-04T05:42:02;-3.80;99.90
8093;DHT22;4089;52.420;13.334;2023-12-04T05:44:31;-3.80;99.90
8093;DHT22;4089;52.420;13.334;2023-12-04T05:46:58;-3.80;99.90
8093;DHT22;4089;52.420;13.334;2023-12-04T05:49:25;-3.80;99.90
8093;DHT22;4089;52.420;13.334;2023-12-04T05:51:52;-3.80;99.90
8093;DHT22;4089;52.420;13.334;2023-12-04T05:54:19;-3.70;99.90
8093;DHT22;4089;52.420;13.334;2023-12-04T05:56:46;-3.70;99.90
8093;DHT22;4089;52.420;13.334;2023-12-04T05:59:13;-3.60;99.90
8093;DHT22;4089;52.420;13.334;2023-12-04T06:01:40;-3.70;99.90
8093;DHT22;4089;52.420;13.334;2023-12-04T06:04:07;-3.60;99.90
8093;DHT22;4089;52.420;13.334;2023-12-04T06:06:33;-3.50;99.90
8093;DHT22;4089;52.420;13.334;2023-12-04T06:09:00;-3.60;99.90
8093;DHT22;4089;52.420;13.334;2023-12-04T06:11:27;-3.60;99.90
8093;DHT22;4089;52.420;13.334;2023-12-04T06:13:54;-3.50;99.90
8093;DHT22;4089;52.420;13.334;2023-12-04T06:16:21;-3.50;99.90
8093;DHT22;4089;52.420;13.334;2023-12-04T06:18:47;-3.50;99.90
8093;DHT22;4089;52.420;13.334;2023-12-04T06:21:15;-3.50;99.90
8093;DHT22;4089;52.420;13.334;2023-12-04T06:23:42;-3.40;99.90
8093;DHT22;4089;52.420;13.334;2023-12-04T06:26:09;-3.50;99.90
8093;DHT22;4089;52.420;13.334;2023-12-04T06:28:37;-3.50;99.90
8093;DHT22;4089;52.420;13.334;2023-12-04T06:31:04;-3.60;99.90
8093;DHT22;4089;52.420;13.334;2023-12-04T06:33:31;-3.50;99.90
8093;DHT22;4089;52.420;13.334;2023-12-04T06:35:58;-3.50;99.90
8093;DHT22;4089;52.420;13.334;2023-12-04T06:38:25;-3.40;99.90
8093;DHT22;4089;52.420;13.334;2023-12-04T06:40:52;-3.40;99.90
8093;DHT22;4089;52.420;13.334;2023-12-04T06:43:19;-3.30;99.90
8093;DHT22;4089;52.420;13.334;2023-12-04T06:45:46;-3.30;99.90
8093;DHT22;4089;52.420;13.334;2023-12-04T06:48:15;-3.20;99.90
8093;DHT22;4089;52.420;13.334;2023-12-04T06:50:42;-3.20;99.90
8093;DHT22;4089;52.420;13.334;2023-12-04T06:53:09;-3.20;99.90
8093;DHT22;4089;52.420;13.334;2023-12-04T06:55:36;-3.10;99.90
8093;DHT22;4089;52.420;13.334;2023-12-04T06:58:03;-3.10;99.90
8093;DHT22;4089;52.420;13.334;2023-12-04T07:00:30;-3.00;99.90
8093;DHT22;4089;52.420;13.334;2023-12-04T07:02:57;-3.00;99.90
8093;DHT22;4089;52.420;13.334;2023-12-04T07:05:24;-3.00;99.90
8093;DHT22;4089;52.420;13.334;2023-12-04T07:07:51;-2.90;99.90
8093;DHT22;4089;52.420;13.334;2023-12-04T07:10:17;-2.90;99.90
8093;DHT22;4089;52.420;13.334;2023-12-04T07:12:45;-2.80;99.90
8093;DHT22;4089;52.420;13.334;2023-12-04T07:15:12;-2.70;99.90
8093;DHT22;4089;52.420;13.334;2023-12-04T07:17:39;-2.60;99.90
8093;DHT22;4089;52.420;13.334;2023-12-04T07:20:07;-2.60;99.90
8093;DHT22;4089;52.420;13.334;2023-12-04T07:22:34;-2.60;99.90
8093;DHT22;4089;52.420;13.334;2023-12-04T07:25:05;-2.60;99.90
8093;DHT22;4089;52.420;13.334;2023-12-04T07:27:36;-2.60;99.90
8093;DHT22;4089;52.420;13.334;2023-12-04T07:30:04;-2.50;99.90
8093;DHT22;4089;52.420;13.334;2023-12-04T07:32:31;-2.50;99.90
8093;DHT22;4089;52.420;13.334;2023-12-04T07:35:00;-2.50;99.90
8093;DHT22;4089;52.420;13.334;2023-12-04T07:37:27;-2.50;99.90
8093;DHT22;4089;52.420;13.334;2023-12-04T07:39:59;-2.40;99.90
8093;DHT22;4089;52.420;13.334;2023-12-04T07:42:27;-2.30;99.90
8093;DHT22;4089;52.420;13.334;2023-12-04T07:44:53;-2.30;99.90
8093;DHT22;4089;52.420;13.334;2023-12-04T07:47:20;-2.30;99.90
8093;DHT22;4089;52.420;13.334;2023-12-04T07:49:49;-2.20;99.90
8093;DHT22;4089;52.420;13.334;2023-12-04T07:52:16;-2.30;99.90
8093;DHT22;4089;52.420;13.334;2023-12-04T07:54:44;-2.30;99.90
8093;DHT22;4089;52.420;13.334;2023-12-04T07:57:11;-2.20;99.90
8093;DHT22;4089;52.420;13.334;2023-12-04T07:59:38;-2.30;99.90
8093;DHT22;4089;52.420;13.334;2023-12-04T08:02:10;-2.20;99.90
8093;DHT22;4089;52.420;13.334;2023-12-04T08:04:37;-2.20;99.90
8093;DHT22;4089;52.420;13.334;2023-12-04T08:07:04;-2.10;99.90
8093;DHT22;4089;52.420;13.334;2023-12-04T08:09:31;-2.10;99.90
8093;DHT22;4089;52.420;13.334;2023-12-04T08:11:58;-2.00;99.90
8093;DHT22;4089;52.420;13.334;2023-12-04T08:14:25;-2.00;99.90
8093;DHT22;4089;52.420;13.334;2023-12-04T08:16:54;-1.90;99.90
8093;DHT22;4089;52.420;13.334;2023-12-04T08:19:21;-1.80;99.90
8093;DHT22;4089;52.420;13.334;2023-12-04T08:21:49;-1.80;99.90
8093;DHT22;4089;52.420;13.334;2023-12-04T08:24:16;-1.80;99.90
8093;DHT22;4089;52.420;13.334;2023-12-04T08:26:45;-1.70;99.90
8093;DHT22;4089;52.420;13.334;2023-12-04T08:29:12;-1.70;99.90
8093;DHT22;4089;52.420;13.334;2023-12-04T08:31:39;-1.70;99.90
8093;DHT22;4089;52.420;13.334;2023-12-04T08:34:07;-1.70;99.90
8093;DHT22;4089;52.420;13.334;2023-12-04T08:36:33;-1.50;99.90
8093;DHT22;4089;52.420;13.334;2023-12-04T08:39:12;-1.50;99.90
8093;DHT22;4089;52.420;13.334;2023-12-04T08:41:39;-1.30;99.90
8093;DHT22;4089;52.420;13.334;2023-12-04T08:44:16;-1.30;99.90
8093;DHT22;4089;52.420;13.334;2023-12-04T08:46:44;-1.30;99.90
8093;DHT22;4089;52.420;13.334;2023-12-04T08:49:11;-1.30;99.90
8093;DHT22;4089;52.420;13.334;2023-12-04T08:51:38;-1.30;99.90
8093;DHT22;4089;52.420;13.334;2023-12-04T08:54:06;-1.20;99.90
8093;DHT22;4089;52.420;13.334;2023-12-04T08:56:36;-1.20;99.90
8093;DHT22;4089;52.420;13.334;2023-12-04T08:59:03;-1.10;99.90
8093;DHT22;4089;52.420;13.334;2023-12-04T09:01:30;-1.10;99.90
8093;DHT22;4089;52.420;13.334;2023-12-04T09:03:58;-1.10;99.90
8093;DHT22;4089;52.420;13.334;2023-12-04T09:06:25;-1.00;99.90
8093;DHT22;4089;52.420;13.334;2023-12-04T09:09:12;-1.00;99.90
8093;DHT22;4089;52.420;13.334;2023-12-04T09:11:42;-1.00;99.90
8093;DHT22;4089;52.420;13.334;2023-12-04T09:14:09;-0.90;99.90
8093;DHT22;4089;52.420;13.334;2023-12-04T09:16:36;-1.00;99.90
8093;DHT22;4089;52.420;13.334;2023-12-04T09:19:03;-1.10;99.90
8093;DHT22;4089;52.420;13.334;2023-12-04T09:21:31;-1.00;99.90
8093;DHT22;4089;52.420;13.334;2023-12-04T09:23:58;-1.00;99.90
8093;DHT22;4089;52.420;13.334;2023-12-04T09:26:25;-1.00;99.90
8093;DHT22;4089;52.420;13.334;2023-12-04T09:28:52;-0.90;99.90
8093;DHT22;4089;52.420;13.334;2023-12-04T09:31:19;-1.00;99.90
8093;DHT22;4089;52.420;13.334;2023-12-04T09:33:46;-0.90;99.90
8093;DHT22;4089;52.420;13.334;2023-12-04T09:36:16;-0.80;99.90
8093;DHT22;4089;52.420;13.334;2023-12-04T09:38:43;-0.80;99.90
8093;DHT22;4089;52.420;13.334;2023-12-04T09:41:12;-0.90;99.90
8093;DHT22;4089;52.420;13.334;2023-12-04T09:43:39;-0.90;99.90
8093;DHT22;4089;52.420;13.334;2023-12-04T09:46:08;-0.90;99.90
8093;DHT22;4089;52.420;13.334;2023-12-04T09:48:36;-0.90;99.90
8093;DHT22;4089;52.420;13.334;2023-12-04T09:51:05;-0.90;99.90
8093;DHT22;4089;52.420;13.334;2023-12-04T09:53:32;-0.80;99.90
8093;DHT22;4089;52.420;13.334;2023-12-04T09:56:00;-0.70;99.90
8093;DHT22;4089;52.420;13.334;2023-12-04T09:58:30;-0.70;99.90
8093;DHT22;4089;52.420;13.334;2023-12-04T10:01:01;-0.70;99.90
8093;DHT22;4089;52.420;13.334;2023-12-04T10:03:30;-0.60;99.90
8093;DHT22;4089;52.420;13.334;2023-12-04T10:05:58;-0.60;99.90
8093;DHT22;4089;52.420;13.334;2023-12-04T10:08:25;-0.50;99.90
8093;DHT22;4089;52.420;13.334;2023-12-04T10:10:52;-0.50;99.90
8093;DHT22;4089;52.420;13.334;2023-12-04T10:13:19;-0.50;99.90
8093;DHT22;4089;52.420;13.334;2023-12-04T10:16:06;-0.50;99.90
8093;DHT22;4089;52.420;13.334;2023-12-04T10:18:33;-0.50;99.90
8093;DHT22;4089;52.420;13.334;2023-12-04T10:21:01;-0.40;99.90
8093;DHT22;4089;52.420;13.334;2023-12-04T10:23:41;-0.30;99.90
8093;DHT22;4089;52.420;13.334;2023-12-04T10:26:08;-0.20;99.90
8093;DHT22;4089;52.420;13.334;2023-12-04T10:28:36;-0.20;99.90
8093;DHT22;4089;52.420;13.334;2023-12-04T10:31:03;-0.20;99.90
8093;DHT22;4089;52.420;13.334;2023-12-04T10:33:33;-0.20;99.90
8093;DHT22;4089;52.420;13.334;2023-12-04T10:36:00;-0.20;99.90
8093;DHT22;4089;52.420;13.334;2023-12-04T10:38:29;-0.10;99.90
8093;DHT22;4089;52.420;13.334;2023-12-04T10:40:56;-0.10;99.90
8093;DHT22;4089;52.420;13.334;2023-12-04T10:43:47;-0.10;99.90
8093;DHT22;4089;52.420;13.334;2023-12-04T10:46:24;-0.10;99.90
8093;DHT22;4089;52.420;13.334;2023-12-04T10:48:52;-0.10;99.90
8093;DHT22;4089;52.420;13.334;2023-12-04T10:51:20;-0.10;99.90
8093;DHT22;4089;52.420;13.334;2023-12-04T10:53:49;-0.10;99.90
8093;DHT22;4089;52.420;13.334;2023-12-04T10:56:36;-0.10;99.90
8093;DHT22;4089;52.420;13.334;2023-12-04T10:59:11;-0.10;99.90
8093;DHT22;4089;52.420;13.334;2023-12-04T11:01:42;-0.10;99.90
8093;DHT22;4089;52.420;13.334;2023-12-04T11:04:17;-0.10;99.90
8093;DHT22;4089;52.420;13.334;2023-12-04T11:06:47;-0.10;99.90
8093;DHT22;4089;52.420;13.334;2023-12-04T11:09:17;-0.10;99.90
8093;DHT22;4089;52.420;13.334;2023-12-04T11:11:48;0.10;99.90
8093;DHT22;4089;52.420;13.334;2023-12-04T11:14:22;0.10;99.90
8093;DHT22;4089;52.420;13.334;2023-12-04T11:16:53;0.10;99.90
8093;DHT22;4089;52.420;13.334;2023-12-04T11:19:32;0.10;99.90
8093;DHT22;4089;52.420;13.334;2023-12-04T11:22:02;0.20;99.90
8093;DHT22;4089;52.420;13.334;2023-12-04T11:24:30;0.30;99.90
8093;DHT22;4089;52.420;13.334;2023-12-04T11:26:58;0.30;99.90
8093;DHT22;4089;52.420;13.334;2023-12-04T11:29:25;0.20;99.90
8093;DHT22;4089;52.420;13.334;2023-12-04T11:31:52;0.20;99.90
8093;DHT22;4089;52.420;13.334;2023-12-04T11:34:19;0.20;99.90
8093;DHT22;4089;52.420;13.334;2023-12-04T11:36:46;0.30;99.90
8093;DHT22;4089;52.420;13.334;2023-12-04T11:39:14;0.40;99.90
8093;DHT22;4089;52.420;13.334;2023-12-04T11:41:41;0.40;99.90
8093;DHT22;4089;52.420;13.334;2023-12-04T11:44:13;0.50;99.90
8093;DHT22;4089;52.420;13.334;2023-12-04T11:46:56;0.50;99.90
8093;DHT22;4089;52.420;13.334;2023-12-04T11:49:30;0.40;99.90
8093;DHT22;4089;52.420;13.334;2023-12-04T11:51:58;0.40;99.90
8093;DHT22;4089;52.420;13.334;2023-12-04T11:54:27;0.50;99.90
8093;DHT22;4089;52.420;13.334;2023-12-04T11:59:37;0.60;99.90
8093;DHT22;4089;52.420;13.334;2023-12-04T12:02:08;0.60;99.90
8093;DHT22;4089;52.420;13.334;2023-12-04T12:04:36;0.80;99.90
8093;DHT22;4089;52.420;13.334;2023-12-04T12:07:05;0.70;99.90
8093;DHT22;4089;52.420;13.334;2023-12-04T12:09:32;0.70;99.90
8093;DHT22;4089;52.420;13.334;2023-12-04T12:12:03;0.60;99.90
8093;DHT22;4089;52.420;13.334;2023-12-04T12:14:31;0.60;99.90
8093;DHT22;4089;52.420;13.334;2023-12-04T12:16:59;0.70;99.90
8093;DHT22;4089;52.420;13.334;2023-12-04T12:19:27;0.70;99.90
8093;DHT22;4089;52.420;13.334;2023-12-04T12:21:54;0.70;99.90
8093;DHT22;4089;52.420;13.334;2023-12-04T12:24:23;0.70;99.90
8093;DHT22;4089;52.420;13.334;2023-12-04T12:26:50;0.70;99.90
8093;DHT22;4089;52.420;13.334;2023-12-04T12:29:17;0.80;99.90
8093;DHT22;4089;52.420;13.334;2023-12-04T12:31:44;0.70;99.90
8093;DHT22;4089;52.420;13.334;2023-12-04T12:34:14;0.70;99.90
8093;DHT22;4089;52.420;13.334;2023-12-04T12:36:41;0.70;99.90
8093;DHT22;4089;52.420;13.334;2023-12-04T12:39:08;0.70;99.90
8093;DHT22;4089;52.420;13.334;2023-12-04T12:41:35;0.70;99.90
8093;DHT22;4089;52.420;13.334;2023-12-04T12:44:02;0.60;99.90
8093;DHT22;4089;52.420;13.334;2023-12-04T12:46:30;0.60;99.90
8093;DHT22;4089;52.420;13.334;2023-12-04T12:48:57;0.50;99.90
8093;DHT22;4089;52.420;13.334;2023-12-04T12:51:26;0.60;99.90
8093;DHT22;4089;52.420;13.334;2023-12-04T12:53:53;0.60;99.90
8093;DHT22;4089;52.420;13.334;2023-12-04T12:56:20;0.60;99.90
8093;DHT22;4089;52.420;13.334;2023-12-04T12:58:49;0.60;99.90
8093;DHT22;4089;52.420;13.334;2023-12-04T13:01:16;0.50;99.90
8093;DHT22;4089;52.420;13.334;2023-12-04T13:03:45;0.60;99.90
8093;DHT22;4089;52.420;13.334;2023-12-04T13:06:14;0.60;99.90
8093;DHT22;4089;52.420;13.334;2023-12-04T13:08:41;0.60;99.90
8093;DHT22;4089;52.420;13.334;2023-12-04T13:11:08;0.50;99.90
8093;DHT22;4089;52.420;13.334;2023-12-04T13:13:35;0.60;99.90
8093;DHT22;4089;52.420;13.334;2023-12-04T13:16:02;0.50;99.90
8093;DHT22;4089;52.420;13.334;2023-12-04T13:18:29;0.50;99.90
8093;DHT22;4089;52.420;13.334;2023-12-04T13:20:58;0.60;99.90
8093;DHT22;4089;52.420;13.334;2023-12-04T13:23:25;0.60;99.90
8093;DHT22;4089;52.420;13.334;2023-12-04T13:25:52;0.70;99.90
8093;DHT22;4089;52.420;13.334;2023-12-04T13:28:21;0.70;99.90
8093;DHT22;4089;52.420;13.334;2023-12-04T13:30:58;0.70;99.90
8093;DHT22;4089;52.420;13.334;2023-12-04T13:33:24;0.70;99.90
8093;DHT22;4089;52.420;13.334;2023-12-04T13:35:52;0.70;99.90
8093;DHT22;4089;52.420;13.334;2023-12-04T13:38:20;0.60;99.90
8093;DHT22;4089;52.420;13.334;2023-12-04T13:40:56;0.70;99.90
8093;DHT22;4089;52.420;13.334;2023-12-04T13:43:41;0.70;99.90
8093;DHT22;4089;52.420;13.334;2023-12-04T13:46:17;0.50;99.90
8093;DHT22;4089;52.420;13.334;2023-12-04T13:48:43;0.60;99.90
8093;DHT22;4089;52.420;13.334;2023-12-04T13:51:11;0.50;99.90
8093;DHT22;4089;52.420;13.334;2023-12-04T13:53:39;0.50;99.90
8093;DHT22;4089;52.420;13.334;2023-12-04T13:56:11;0.50;99.90
8093;DHT22;4089;52.420;13.334;2023-12-04T13:58:38;0.40;99.90
8093;DHT22;4089;52.420;13.334;2023-12-04T14:01:10;0.30;99.90
8093;DHT22;4089;52.420;13.334;2023-12-04T14:03:43;0.30;99.90
8093;DHT22;4089;52.420;13.334;2023-12-04T14:06:11;0.40;99.90
8093;DHT22;4089;52.420;13.334;2023-12-04T14:08:38;0.40;99.90
8093;DHT22;4089;52.420;13.334;2023-12-04T14:11:06;0.40;99.90
8093;DHT22;4089;52.420;13.334;2023-12-04T14:13:33;0.40;99.90
8093;DHT22;4089;52.420;13.334;2023-12-04T14:16:01;0.40;99.90
8093;DHT22;4089;52.420;13.334;2023-12-04T14:18:28;0.40;99.90
8093;DHT22;4089;52.420;13.334;2023-12-04T14:20:57;0.30;99.90
8093;DHT22;4089;52.420;13.334;2023-12-04T14:23:24;0.20;99.90
8093;DHT22;4089;52.420;13.334;2023-12-04T14:25:51;0.20;99.90
8093;DHT22;4089;52.420;13.334;2023-12-04T14:28:18;0.20;99.90
8093;DHT22;4089;52.420;13.334;2023-12-04T14:30:54;0.20;99.90
8093;DHT22;4089;52.420;13.334;2023-12-04T14:33:22;0.10;99.90
8093;DHT22;4089;52.420;13.334;2023-12-04T14:35:49;0.20;99.90
8093;DHT22;4089;52.420;13.334;2023-12-04T14:38:17;0.20;99.90
8093;DHT22;4089;52.420;13.334;2023-12-04T14:40:44;0.10;99.90
8093;DHT22;4089;52.420;13.334;2023-12-04T14:43:11;0.10;99.90
8093;DHT22;4089;52.420;13.334;2023-12-04T14:45:38;0.10;99.90
8093;DHT22;4089;52.420;13.334;2023-12-04T14:48:05;0.10;99.90
8093;DHT22;4089;52.420;13.334;2023-12-04T14:50:34;0.10;99.90
8093;DHT22;4089;52.420;13.334;2023-12-04T14:53:02;0.10;99.90
8093;DHT22;4089;52.420;13.334;2023-12-04T14:55:43;0.10;99.90
8093;DHT22;4089;52.420;13.334;2023-12-04T14:58:22;0.10;99.90
8093;DHT22;4089;52.420;13.334;2023-12-04T15:01:15;0.10;99.90
8093;DHT22;4089;52.420;13.334;2023-12-04T15:04:01;0.00;99.90
8093;DHT22;4089;52.420;13.334;2023-12-04T15:07:00;0.00;99.90
8093;DHT22;4089;52.420;13.334;2023-12-04T15:09:50;0.00;99.90
8093;DHT22;4089;52.420;13.334;2023-12-04T15:12:52;0.00;99.90
8093;DHT22;4089;52.420;13.334;2023-12-04T15:15:32;0.00;99.90
8093;DHT22;4089;52.420;13.334;2023-12-04T15:18:17;0.00;99.90
8093;DHT22;4089;52.420;13.334;2023-12-04T15:21:03;0.00;99.90
8093;DHT22;4089;52.420;13.334;2023-12-04T15:23:30;0.00;99.90
8093;DHT22;4089;52.420;13.334;2023-12-04T15:25:57;0.00;99.90
8093;DHT22;4089;52.420;13.334;2023-12-04T15:28:24;0.00;99.90
8093;DHT22;4089;52.420;13.334;2023-12-04T15:30:51;0.00;99.90
8093;DHT22;4089;52.420;13.334;2023-12-04T15:33:18;0.00;99.90
8093;DHT22;4089;52.420;13.334;2023-12-04T15:35:47;0.00;99.90
8093;DHT22;4089;52.420;13.334;2023-12-04T15:38:14;0.00;99.90
8093;DHT22;4089;52.420;13.334;2023-12-04T15:40:41;0.00;99.90
8093;DHT22;4089;52.420;13.334;2023-12-04T15:43:08;0.00;99.90
8093;DHT22;4089;52.420;13.334;2023-12-04T15:45:34;0.00;99.90
8093;DHT22;4089;52.420;13.334;2023-12-04T15:48:01;0.00;99.90
8093;DHT22;4089;52.420;13.334;2023-12-04T15:50:28;0.00;99.90
8093;DHT22;4089;52.420;13.334;2023-12-04T15:52:56;0.00;99.90
8093;DHT22;4089;52.420;13.334;2023-12-04T15:55:23;0.00;99.90
8093;DHT22;4089;52.420;13.334;2023-12-04T15:57:53;0.10;99.90
8093;DHT22;4089;52.420;13.334;2023-12-04T16:00:23;0.10;99.90